sensor_id;sensor_type;location;lat;lon;timestamp;temperature;humidity
30037;DHT22;36325;51.512;-0.382;2022-12-19T00:00:07;10.30;99.90
30037;DHT22;36325;51.512;-0.382;2022-12-19T00:02:39;10.30;99.90
30037;DHT22;36325;51.512;-0.382;2022-12-19T00:05:06;10.40;99.90
30037;DHT22;36325;51.512;-0.382;2022-12-19T00:10:01;10.40;99.90
30037;DHT22;36325;51.512;-0.382;2022-12-19T00:12:29;10.40;99.90
30037;DHT22;36325;51.512;-0.382;2022-12-19T00:14:57;10.50;99.90
30037;DHT22;36325;51.512;-0.382;2022-12-19T00:17:24;10.60;99.90
30037;DHT22;36325;51.512;-0.382;2022-12-19T00:19:51;10.50;99.90
30037;DHT22;36325;51.512;-0.382;2022-12-19T00:22:19;10.60;99.90
30037;DHT22;36325;51.512;-0.382;2022-12-19T00:24:47;10.60;99.90
30037;DHT22;36325;51.512;-0.382;2022-12-19T00:27:14;10.60;99.90
30037;DHT22;36325;51.512;-0.382;2022-12-19T00:29:41;10.60;99.90
30037;DHT22;36325;51.512;-0.382;2022-12-19T00:32:09;10.70;99.90
30037;DHT22;36325;51.512;-0.382;2022-12-19T00:34:36;10.70;99.90
30037;DHT22;36325;51.512;-0.382;2022-12-19T00:37:03;10.80;99.90
30037;DHT22;36325;51.512;-0.382;2022-12-19T00:39:30;10.80;99.90
30037;DHT22;36325;51.512;-0.382;2022-12-19T00:41:57;10.80;99.90
30037;DHT22;36325;51.512;-0.382;2022-12-19T00:44:24;10.90;99.90
30037;DHT22;36325;51.512;-0.382;2022-12-19T00:46:51;10.90;99.90
30037;DHT22;36325;51.512;-0.382;2022-12-19T00:49:19;10.90;99.90
30037;DHT22;36325;51.512;-0.382;2022-12-19T00:51:47;10.90;99.90
30037;DHT22;36325;51.512;-0.382;2022-12-19T00:54:14;11.00;99.90
30037;DHT22;36325;51.512;-0.382;2022-12-19T00:56:41;11.00;99.90
30037;DHT22;36325;51.512;-0.382;2022-12-19T00:59:09;11.00;99.90
30037;DHT22;36325;51.512;-0.382;2022-12-19T01:01:38;11.10;99.90
30037;DHT22;36325;51.512;-0.382;2022-12-19T01:04:11;11.10;99.90
30037;DHT22;36325;51.512;-0.382;2022-12-19T01:06:57;11.20;99.90
30037;DHT22;36325;51.512;-0.382;2022-12-19T01:09:25;11.20;99.90
30037;DHT22;36325;51.512;-0.382;2022-12-19T01:11:52;11.20;99.90
30037;DHT22;36325;51.512;-0.382;2022-12-19T01:14:38;11.20;99.90
30037;DHT22;36325;51.512;-0.382;2022-12-19T01:17:06;11.20;99.90
30037;DHT22;36325;51.512;-0.382;2022-12-19T01:19:33;11.20;99.90
30037;DHT22;36325;51.512;-0.382;2022-12-19T01:22:08;11.30;99.90
30037;DHT22;36325;51.512;-0.382;2022-12-19T01:24:35;11.20;99.90
30037;DHT22;36325;51.512;-0.382;2022-12-19T01:27:02;11.30;99.90
30037;DHT22;36325;51.512;-0.382;2022-12-19T01:29:31;11.30;99.90
30037;DHT22;36325;51.512;-0.382;2022-12-19T01:32:00;11.30;99.90
30037;DHT22;36325;51.512;-0.382;2022-12-19T01:34:30;11.30;99.90
30037;DHT22;36325;51.512;-0.382;2022-12-19T01:36:58;11.40;99.90
30037;DHT22;36325;51.512;-0.382;2022-12-19T01:39:25;11.40;99.90
30037;DHT22;36325;51.512;-0.382;2022-12-19T01:41:52;11.40;99.90
30037;DHT22;36325;51.512;-0.382;2022-12-19T01:44:22;11.40;99.90
30037;DHT22;36325;51.512;-0.382;2022-12-19T01:46:53;11.40;99.90
30037;DHT22;36325;51.512;-0.382;2022-12-19T01:49:34;11.50;99.90
30037;DHT22;36325;51.512;-0.382;2022-12-19T01:52:06;11.50;99.90
30037;DHT22;36325;51.512;-0.382;2022-12-19T01:54:36;11.50;99.90
30037;DHT22;36325;51.512;-0.382;2022-12-19T01:57:06;11.50;99.90
30037;DHT22;36325;51.512;-0.382;2022-12-19T01:59:41;11.50;99.90
30037;DHT22;36325;51.512;-0.382;2022-12-19T02:02:13;11.50;99.90
30037;DHT22;36325;51.512;-0.382;2022-12-19T02:04:43;11.50;99.90
30037;DHT22;36325;51.512;-0.382;2022-12-19T02:07:13;11.50;99.90
30037;DHT22;36325;51.512;-0.382;2022-12-19T02:12:08;11.50;99.90
30037;DHT22;36325;51.512;-0.382;2022-12-19T02:14:36;11.50;99.90
30037;DHT22;36325;51.512;-0.382;2022-12-19T02:19:56;11.60;99.90
30037;DHT22;36325;51.512;-0.382;2022-12-19T02:41:43;11.70;99.90
30037;DHT22;36325;51.512;-0.382;2022-12-19T02:46:56;11.80;99.90
30037;DHT22;36325;51.512;-0.382;2022-12-19T02:49:27;11.80;99.90
30037;DHT22;36325;51.512;-0.382;2022-12-19T02:52:11;11.80;99.90
30037;DHT22;36325;51.512;-0.382;2022-12-19T02:54:39;11.90;99.90
30037;DHT22;36325;51.512;-0.382;2022-12-19T03:08:18;11.90;99.90
30037;DHT22;36325;51.512;-0.382;2022-12-19T03:13:53;11.90;99.90
30037;DHT22;36325;51.512;-0.382;2022-12-19T03:16:23;11.90;99.90
30037;DHT22;36325;51.512;-0.382;2022-12-19T03:18:52;11.90;99.90
30037;DHT22;36325;51.512;-0.382;2022-12-19T03:21:28;12.00;99.90
30037;DHT22;36325;51.512;-0.382;2022-12-19T03:23:58;12.00;99.90
30037;DHT22;36325;51.512;-0.382;2022-12-19T03:26:29;11.90;99.90
30037;DHT22;36325;51.512;-0.382;2022-12-19T03:31:46;12.00;99.90
30037;DHT22;36325;51.512;-0.382;2022-12-19T03:34:21;12.00;99.90
30037;DHT22;36325;51.512;-0.382;2022-12-19T03:36:56;12.00;99.90
30037;DHT22;36325;51.512;-0.382;2022-12-19T03:39:26;12.00;99.90
30037;DHT22;36325;51.512;-0.382;2022-12-19T03:41:56;12.00;99.90
30037;DHT22;36325;51.512;-0.382;2022-12-19T03:44:43;12.00;99.90
30037;DHT22;36325;51.512;-0.382;2022-12-19T03:47:17;12.00;99.90
30037;DHT22;36325;51.512;-0.382;2022-12-19T03:49:45;12.00;99.90
30037;DHT22;36325;51.512;-0.382;2022-12-19T03:55:17;12.10;99.90
30037;DHT22;36325;51.512;-0.382;2022-12-19T04:00:17;12.10;99.90
30037;DHT22;36325;51.512;-0.382;2022-12-19T04:02:48;12.10;99.90
30037;DHT22;36325;51.512;-0.382;2022-12-19T04:05:22;12.10;99.90
30037;DHT22;36325;51.512;-0.382;2022-12-19T04:07:54;12.10;99.90
30037;DHT22;36325;51.512;-0.382;2022-12-19T04:10:24;12.10;99.90
30037;DHT22;36325;51.512;-0.382;2022-12-19T04:12:58;12.00;99.90
30037;DHT22;36325;51.512;-0.382;2022-12-19T04:15:36;12.10;99.90
30037;DHT22;36325;51.512;-0.382;2022-12-19T04:18:09;12.00;99.90
30037;DHT22;36325;51.512;-0.382;2022-12-19T04:20:41;12.10;99.90
30037;DHT22;36325;51.512;-0.382;2022-12-19T04:25:48;12.10;99.90
30037;DHT22;36325;51.512;-0.382;2022-12-19T04:28:21;12.00;99.90
30037;DHT22;36325;51.512;-0.382;2022-12-19T04:30:53;12.00;99.90
30037;DHT22;36325;51.512;-0.382;2022-12-19T04:33:20;13.80;99.90
30037;DHT22;36325;51.512;-0.382;2022-12-19T04:40:45;12.00;99.90
30037;DHT22;36325;51.512;-0.382;2022-12-19T04:43:12;12.00;99.90
30037;DHT22;36325;51.512;-0.382;2022-12-19T04:45:40;12.00;99.90
30037;DHT22;36325;51.512;-0.382;2022-12-19T04:50:35;12.10;99.90
30037;DHT22;36325;51.512;-0.382;2022-12-19T04:53:03;12.10;99.90
30037;DHT22;36325;51.512;-0.382;2022-12-19T04:57:57;12.00;99.90
30037;DHT22;36325;51.512;-0.382;2022-12-19T05:00:27;12.10;99.90
30037;DHT22;36325;51.512;-0.382;2022-12-19T05:02:54;12.10;99.90
30037;DHT22;36325;51.512;-0.382;2022-12-19T05:05:21;12.10;99.90
30037;DHT22;36325;51.512;-0.382;2022-12-19T05:07:49;12.10;99.90
30037;DHT22;36325;51.512;-0.382;2022-12-19T05:10:17;12.10;99.90
30037;DHT22;36325;51.512;-0.382;2022-12-19T05:12:44;12.00;99.90
30037;DHT22;36325;51.512;-0.382;2022-12-19T05:15:11;12.10;99.90
30037;DHT22;36325;51.512;-0.382;2022-12-19T05:17:39;12.00;99.90
30037;DHT22;36325;51.512;-0.382;2022-12-19T05:20:07;12.10;99.90
30037;DHT22;36325;51.512;-0.382;2022-12-19T05:22:34;12.10;99.90
30037;DHT22;36325;51.512;-0.382;2022-12-19T05:25:02;12.10;99.90
30037;DHT22;36325;51.512;-0.382;2022-12-19T05:27:31;12.10;99.90
30037;DHT22;36325;51.512;-0.382;2022-12-19T05:29:58;12.10;99.90
30037;DHT22;36325;51.512;-0.382;2022-12-19T05:32:29;12.10;99.90
30037;DHT22;36325;51.512;-0.382;2022-12-19T05:34:57;12.10;99.90
30037;DHT22;36325;51.512;-0.382;2022-12-19T05:37:26;12.10;99.90
30037;DHT22;36325;51.512;-0.382;2022-12-19T05:40:00;12.10;99.90
30037;DHT22;36325;51.512;-0.382;2022-12-19T05:42:35;12.10;99.90
30037;DHT22;36325;51.512;-0.382;2022-12-19T05:45:02;12.10;99.90
30037;DHT22;36325;51.512;-0.382;2022-12-19T05:47:29;12.10;99.90
30037;DHT22;36325;51.512;-0.382;2022-12-19T05:52:24;12.10;99.90
30037;DHT22;36325;51.512;-0.382;2022-12-19T05:54:51;12.10;99.90
30037;DHT22;36325;51.512;-0.382;2022-12-19T05:57:19;12.10;99.90
30037;DHT22;36325;51.512;-0.382;2022-12-19T05:59:46;12.10;99.90
30037;DHT22;36325;51.512;-0.382;2022-12-19T06:02:13;12.10;99.90
30037;DHT22;36325;51.512;-0.382;2022-12-19T06:04:40;12.10;99.90
30037;DHT22;36325;51.512;-0.382;2022-12-19T06:07:08;12.10;99.90
30037;DHT22;36325;51.512;-0.382;2022-12-19T06:09:35;12.10;99.90
30037;DHT22;36325;51.512;-0.382;2022-12-19T06:12:02;12.20;99.90
30037;DHT22;36325;51.512;-0.382;2022-12-19T06:14:29;12.10;99.90
30037;DHT22;36325;51.512;-0.382;2022-12-19T06:16:58;12.20;99.90
30037;DHT22;36325;51.512;-0.382;2022-12-19T06:19:25;12.20;99.90
30037;DHT22;36325;51.512;-0.382;2022-12-19T06:21:53;12.20;99.90
30037;DHT22;36325;51.512;-0.382;2022-12-19T06:24:22;12.20;99.90
30037;DHT22;36325;51.512;-0.382;2022-12-19T06:26:52;12.20;99.90
30037;DHT22;36325;51.512;-0.382;2022-12-19T06:29:19;12.30;99.90
30037;DHT22;36325;51.512;-0.382;2022-12-19T06:31:46;12.20;99.90
30037;DHT22;36325;51.512;-0.382;2022-12-19T06:34:13;12.30;99.90
30037;DHT22;36325;51.512;-0.382;2022-12-19T06:36:58;12.30;99.90
30037;DHT22;36325;51.512;-0.382;2022-12-19T06:39:29;12.30;99.90
30037;DHT22;36325;51.512;-0.382;2022-12-19T06:41:57;12.30;99.90
30037;DHT22;36325;51.512;-0.382;2022-12-19T06:44:42;12.20;99.90
30037;DHT22;36325;51.512;-0.382;2022-12-19T06:47:10;12.30;99.90
30037;DHT22;36325;51.512;-0.382;2022-12-19T06:49:37;12.30;99.90
30037;DHT22;36325;51.512;-0.382;2022-12-19T06:52:04;12.30;99.90
30037;DHT22;36325;51.512;-0.382;2022-12-19T06:54:34;12.30;99.90
30037;DHT22;36325;51.512;-0.382;2022-12-19T06:57:01;12.30;99.90
30037;DHT22;36325;51.512;-0.382;2022-12-19T06:59:29;12.30;99.90
30037;DHT22;36325;51.512;-0.382;2022-12-19T07:02:23;12.30;99.90
30037;DHT22;36325;51.512;-0.382;2022-12-19T07:04:58;12.30;99.90
30037;DHT22;36325;51.512;-0.382;2022-12-19T07:07:28;12.30;99.90
30037;DHT22;36325;51.512;-0.382;2022-12-19T07:09:55;12.30;99.90
30037;DHT22;36325;51.512;-0.382;2022-12-19T07:12:22;12.30;99.90
30037;DHT22;36325;51.512;-0.382;2022-12-19T07:14:49;12.30;99.90
30037;DHT22;36325;51.512;-0.382;2022-12-19T07:17:20;12.30;99.90
30037;DHT22;36325;51.512;-0.382;2022-12-19T07:19:49;12.30;99.90
30037;DHT22;36325;51.512;-0.382;2022-12-19T07:22:16;12.30;99.90
30037;DHT22;36325;51.512;-0.382;2022-12-19T07:24:43;12.30;99.90
30037;DHT22;36325;51.512;-0.382;2022-12-19T07:27:10;12.30;99.90
30037;DHT22;36325;51.512;-0.382;2022-12-19T07:29:38;12.30;99.90
30037;DHT22;36325;51.512;-0.382;2022-12-19T07:32:05;12.40;99.90
30037;DHT22;36325;51.512;-0.382;2022-12-19T07:34:32;12.40;99.90
30037;DHT22;36325;51.512;-0.382;2022-12-19T07:36:59;12.40;99.90
30037;DHT22;36325;51.512;-0.382;2022-12-19T07:39:26;12.40;99.90
30037;DHT22;36325;51.512;-0.382;2022-12-19T07:41:53;12.40;99.90
30037;DHT22;36325;51.512;-0.382;2022-12-19T07:44:31;12.40;99.90
30037;DHT22;36325;51.512;-0.382;2022-12-19T07:46:58;12.40;99.90
30037;DHT22;36325;51.512;-0.382;2022-12-19T07:49:25;12.30;99.90
30037;DHT22;36325;51.512;-0.382;2022-12-19T07:51:53;12.40;99.90
30037;DHT22;36325;51.512;-0.382;2022-12-19T07:54:20;12.40;99.90
30037;DHT22;36325;51.512;-0.382;2022-12-19T07:56:47;12.40;99.90
30037;DHT22;36325;51.512;-0.382;2022-12-19T07:59:14;12.40;99.90
30037;DHT22;36325;51.512;-0.382;2022-12-19T08:01:41;12.40;99.90
30037;DHT22;36325;51.512;-0.382;2022-12-19T08:04:09;12.40;99.90
30037;DHT22;36325;51.512;-0.382;2022-12-19T08:06:36;12.30;99.90
30037;DHT22;36325;51.512;-0.382;2022-12-19T08:09:07;12.30;99.90
30037;DHT22;36325;51.512;-0.382;2022-12-19T08:11:34;12.30;99.90
30037;DHT22;36325;51.512;-0.382;2022-12-19T08:14:01;12.30;99.90
30037;DHT22;36325;51.512;-0.382;2022-12-19T08:16:28;12.40;99.90
30037;DHT22;36325;51.512;-0.382;2022-12-19T08:18:56;12.30;99.90
30037;DHT22;36325;51.512;-0.382;2022-12-19T08:21:23;12.40;99.90
30037;DHT22;36325;51.512;-0.382;2022-12-19T08:26:20;12.40;99.90
30037;DHT22;36325;51.512;-0.382;2022-12-19T08:28:56;12.40;99.90
30037;DHT22;36325;51.512;-0.382;2022-12-19T08:31:27;12.40;99.90
30037;DHT22;36325;51.512;-0.382;2022-12-19T08:33:55;12.40;99.90
30037;DHT22;36325;51.512;-0.382;2022-12-19T08:36:24;12.40;99.90
30037;DHT22;36325;51.512;-0.382;2022-12-19T08:38:53;12.50;99.90
30037;DHT22;36325;51.512;-0.382;2022-12-19T08:41:22;12.50;99.90
30037;DHT22;36325;51.512;-0.382;2022-12-19T08:43:51;12.50;99.90
30037;DHT22;36325;51.512;-0.382;2022-12-19T08:46:20;12.50;99.90
30037;DHT22;36325;51.512;-0.382;2022-12-19T08:48:49;12.50;99.90
30037;DHT22;36325;51.512;-0.382;2022-12-19T08:51:17;12.40;99.90
30037;DHT22;36325;51.512;-0.382;2022-12-19T08:53:46;12.40;99.90
30037;DHT22;36325;51.512;-0.382;2022-12-19T08:56:17;12.50;99.90
30037;DHT22;36325;51.512;-0.382;2022-12-19T08:58:46;12.50;99.90
30037;DHT22;36325;51.512;-0.382;2022-12-19T09:01:15;12.50;99.90
30037;DHT22;36325;51.512;-0.382;2022-12-19T09:03:46;12.50;99.90
30037;DHT22;36325;51.512;-0.382;2022-12-19T09:06:26;12.50;99.90
30037;DHT22;36325;51.512;-0.382;2022-12-19T09:08:54;12.50;99.90
30037;DHT22;36325;51.512;-0.382;2022-12-19T09:11:26;12.50;99.90
30037;DHT22;36325;51.512;-0.382;2022-12-19T09:13:55;12.50;99.90
30037;DHT22;36325;51.512;-0.382;2022-12-19T09:16:25;12.50;99.90
30037;DHT22;36325;51.512;-0.382;2022-12-19T09:18:55;12.60;99.90
30037;DHT22;36325;51.512;-0.382;2022-12-19T09:21:27;12.60;99.90
30037;DHT22;36325;51.512;-0.382;2022-12-19T09:23:59;12.60;99.90
30037;DHT22;36325;51.512;-0.382;2022-12-19T09:26:34;12.60;99.90
30037;DHT22;36325;51.512;-0.382;2022-12-19T09:29:02;12.60;99.90
30037;DHT22;36325;51.512;-0.382;2022-12-19T09:31:30;12.60;99.90
30037;DHT22;36325;51.512;-0.382;2022-12-19T09:33:57;11.60;99.90
30037;DHT22;36325;51.512;-0.382;2022-12-19T09:36:25;12.60;99.90
30037;DHT22;36325;51.512;-0.382;2022-12-19T09:38:53;12.50;99.90
30037;DHT22;36325;51.512;-0.382;2022-12-19T09:41:54;12.60;99.90
30037;DHT22;36325;51.512;-0.382;2022-12-19T09:47:37;12.60;99.90
30037;DHT22;36325;51.512;-0.382;2022-12-19T09:50:22;12.50;99.90
30037;DHT22;36325;51.512;-0.382;2022-12-19T09:52:56;12.60;99.90
30037;DHT22;36325;51.512;-0.382;2022-12-19T09:55:31;12.60;99.90
30037;DHT22;36325;51.512;-0.382;2022-12-19T09:58:21;12.50;99.90
30037;DHT22;36325;51.512;-0.382;2022-12-19T10:00:58;12.40;99.90
30037;DHT22;36325;51.512;-0.382;2022-12-19T10:03:33;12.50;99.90
30037;DHT22;36325;51.512;-0.382;2022-12-19T10:06:19;11.80;99.90
30037;DHT22;36325;51.512;-0.382;2022-12-19T10:09:01;12.50;99.90
30037;DHT22;36325;51.512;-0.382;2022-12-19T10:20:29;12.50;99.90
30037;DHT22;36325;51.512;-0.382;2022-12-19T10:31:22;12.60;99.90
30037;DHT22;36325;51.512;-0.382;2022-12-19T10:36:46;12.60;99.90
30037;DHT22;36325;51.512;-0.382;2022-12-19T10:42:32;12.60;99.90
30037;DHT22;36325;51.512;-0.382;2022-12-19T10:45:07;12.60;99.90
30037;DHT22;36325;51.512;-0.382;2022-12-19T10:50:05;12.60;99.90
30037;DHT22;36325;51.512;-0.382;2022-12-19T10:52:51;12.60;99.90
30037;DHT22;36325;51.512;-0.382;2022-12-19T10:55:31;12.50;99.90
30037;DHT22;36325;51.512;-0.382;2022-12-19T10:58:09;12.40;99.90
30037;DHT22;36325;51.512;-0.382;2022-12-19T11:01:09;12.40;99.90
30037;DHT22;36325;51.512;-0.382;2022-12-19T11:03:45;12.40;99.90
30037;DHT22;36325;51.512;-0.382;2022-12-19T11:06:40;12.40;99.90
30037;DHT22;36325;51.512;-0.382;2022-12-19T11:09:28;12.30;99.90
30037;DHT22;36325;51.512;-0.382;2022-12-19T11:12:23;12.30;99.90
30037;DHT22;36325;51.512;-0.382;2022-12-19T11:15:14;12.30;99.90
30037;DHT22;36325;51.512;-0.382;2022-12-19T11:18:06;12.30;99.90
30037;DHT22;36325;51.512;-0.382;2022-12-19T11:20:59;12.30;99.90
30037;DHT22;36325;51.512;-0.382;2022-12-19T11:23:54;12.30;99.90
30037;DHT22;36325;51.512;-0.382;2022-12-19T11:26:45;10.00;99.90
30037;DHT22;36325;51.512;-0.382;2022-12-19T11:29:47;12.30;99.90
30037;DHT22;36325;51.512;-0.382;2022-12-19T11:32:38;12.30;99.90
30037;DHT22;36325;51.512;-0.382;2022-12-19T11:35:22;12.20;99.90
30037;DHT22;36325;51.512;-0.382;2022-12-19T11:37:58;12.30;99.90
30037;DHT22;36325;51.512;-0.382;2022-12-19T11:46:22;12.30;99.90
30037;DHT22;36325;51.512;-0.382;2022-12-19T11:49:07;12.30;99.90
30037;DHT22;36325;51.512;-0.382;2022-12-19T11:51:53;12.30;99.90
30037;DHT22;36325;51.512;-0.382;2022-12-19T11:54:31;12.30;99.90
30037;DHT22;36325;51.512;-0.382;2022-12-19T11:57:00;12.30;99.90
30037;DHT22;36325;51.512;-0.382;2022-12-19T11:59:34;12.30;99.90
30037;DHT22;36325;51.512;-0.382;2022-12-19T12:05:08;12.40;99.90
30037;DHT22;36325;51.512;-0.382;2022-12-19T12:07:45;12.40;99.90
30037;DHT22;36325;51.512;-0.382;2022-12-19T12:11:47;12.40;99.90
30037;DHT22;36325;51.512;-0.382;2022-12-19T12:14:21;12.40;99.90
30037;DHT22;36325;51.512;-0.382;2022-12-19T12:17:28;12.50;99.90
30037;DHT22;36325;51.512;-0.382;2022-12-19T12:23:49;12.60;99.90
30037;DHT22;36325;51.512;-0.382;2022-12-19T12:26:47;12.60;99.90
30037;DHT22;36325;51.512;-0.382;2022-12-19T12:36:01;12.60;99.90
30037;DHT22;36325;51.512;-0.382;2022-12-19T12:45:18;12.60;99.90
30037;DHT22;36325;51.512;-0.382;2022-12-19T12:47:51;12.70;99.90
30037;DHT22;36325;51.512;-0.382;2022-12-19T12:50:23;12.70;99.90
30037;DHT22;36325;51.512;-0.382;2022-12-19T12:52:57;12.70;99.90
30037;DHT22;36325;51.512;-0.382;2022-12-19T12:55:32;12.80;99.90
30037;DHT22;36325;51.512;-0.382;2022-12-19T12:58:00;12.80;99.90
30037;DHT22;36325;51.512;-0.382;2022-12-19T13:00:32;12.80;99.90
30037;DHT22;36325;51.512;-0.382;2022-12-19T13:05:54;12.80;99.90
30037;DHT22;36325;51.512;-0.382;2022-12-19T13:08:47;12.80;99.90
30037;DHT22;36325;51.512;-0.382;2022-12-19T13:11:38;12.80;99.90
30037;DHT22;36325;51.512;-0.382;2022-12-19T13:17:05;12.80;99.90
30037;DHT22;36325;51.512;-0.382;2022-12-19T13:19:37;12.80;99.90
30037;DHT22;36325;51.512;-0.382;2022-12-19T13:24:53;12.80;99.90
30037;DHT22;36325;51.512;-0.382;2022-12-19T13:32:33;12.90;99.90
30037;DHT22;36325;51.512;-0.382;2022-12-19T13:41:01;12.90;99.90
30037;DHT22;36325;51.512;-0.382;2022-12-19T13:43:49;12.90;99.90
30037;DHT22;36325;51.512;-0.382;2022-12-19T13:49:05;12.80;99.90
30037;DHT22;36325;51.512;-0.382;2022-12-19T13:51:51;13.30;99.90
30037;DHT22;36325;51.512;-0.382;2022-12-19T13:54:24;12.90;99.90
30037;DHT22;36325;51.512;-0.382;2022-12-19T13:56:53;12.90;99.90
30037;DHT22;36325;51.512;-0.382;2022-12-19T13:59:23;12.80;99.90
30037;DHT22;36325;51.512;-0.382;2022-12-19T14:01:52;12.80;99.90
30037;DHT22;36325;51.512;-0.382;2022-12-19T14:04:31;12.80;99.90
30037;DHT22;36325;51.512;-0.382;2022-12-19T14:07:03;12.80;99.90
30037;DHT22;36325;51.512;-0.382;2022-12-19T14:09:34;12.70;99.90
30037;DHT22;36325;51.512;-0.382;2022-12-19T14:12:30;12.80;99.90
30037;DHT22;36325;51.512;-0.382;2022-12-19T14:15:39;12.80;99.90
30037;DHT22;36325;51.512;-0.382;2022-12-19T14:18:28;12.80;99.90
30037;DHT22;36325;51.512;-0.382;2022-12-19T14:24:15;12.90;99.90
30037;DHT22;36325;51.512;-0.382;2022-12-19T14:26:49;12.90;99.90
30037;DHT22;36325;51.512;-0.382;2022-12-19T14:29:46;12.80;99.90
30037;DHT22;36325;51.512;-0.382;2022-12-19T14:32:36;12.80;99.90
30037;DHT22;36325;51.512;-0.382;2022-12-19T14:35:32;12.90;99.90
30037;DHT22;36325;51.512;-0.382;2022-12-19T14:38:30;12.90;99.90
30037;DHT22;36325;51.512;-0.382;2022-12-19T14:44:14;12.80;99.90
30037;DHT22;36325;51.512;-0.382;2022-12-19T14:47:19;12.80;99.90
30037;DHT22;36325;51.512;-0.382;2022-12-19T14:50:32;12.80;99.90
30037;DHT22;36325;51.512;-0.382;2022-12-19T14:53:21;12.80;99.90
30037;DHT22;36325;51.512;-0.382;2022-12-19T14:56:10;12.80;99.90
30037;DHT22;36325;51.512;-0.382;2022-12-19T14:58:59;12.80;99.90
30037;DHT22;36325;51.512;-0.382;2022-12-19T15:01:29;12.80;99.90
30037;DHT22;36325;51.512;-0.382;2022-12-19T15:04:04;12.60;99.90
30037;DHT22;36325;51.512;-0.382;2022-12-19T15:06:58;12.80;99.90
30037;DHT22;36325;51.512;-0.382;2022-12-19T15:09:45;12.80;99.90
30037;DHT22;36325;51.512;-0.382;2022-12-19T15:12:54;12.90;99.90
30037;DHT22;36325;51.512;-0.382;2022-12-19T15:16:02;12.90;99.90
30037;DHT22;36325;51.512;-0.382;2022-12-19T15:21:02;12.90;99.90
30037;DHT22;36325;51.512;-0.382;2022-12-19T15:23:30;12.90;99.90
30037;DHT22;36325;51.512;-0.382;2022-12-19T15:26:02;12.90;99.90
30037;DHT22;36325;51.512;-0.382;2022-12-19T15:31:36;12.90;99.90
30037;DHT22;36325;51.512;-0.382;2022-12-19T15:34:19;12.90;99.90
30037;DHT22;36325;51.512;-0.382;2022-12-19T15:37:12;12.90;99.90
30037;DHT22;36325;51.512;-0.382;2022-12-19T15:39:40;12.90;99.90
30037;DHT22;36325;51.512;-0.382;2022-12-19T15:42:19;12.70;99.90
30037;DHT22;36325;51.512;-0.382;2022-12-19T15:44:48;12.90;99.90
30037;DHT22;36325;51.512;-0.382;2022-12-19T15:47:24;12.90;99.90
30037;DHT22;36325;51.512;-0.382;2022-12-19T15:52:22;12.90;99.90
30037;DHT22;36325;51.512;-0.382;2022-12-19T15:57:32;12.90;99.90
30037;DHT22;36325;51.512;-0.382;2022-12-19T16:00:03;12.90;99.90
30037;DHT22;36325;51.512;-0.382;2022-12-19T16:02:31;12.90;99.90
30037;DHT22;36325;51.512;-0.382;2022-12-19T16:05:23;12.80;99.90
30037;DHT22;36325;51.512;-0.382;2022-12-19T16:07:51;12.80;99.90
30037;DHT22;36325;51.512;-0.382;2022-12-19T16:10:18;12.80;99.90
30037;DHT22;36325;51.512;-0.382;2022-12-19T16:12:52;12.80;99.90
30037;DHT22;36325;51.512;-0.382;2022-12-19T16:15:24;12.80;99.90
30037;DHT22;36325;51.512;-0.382;2022-12-19T16:17:53;12.90;99.90
30037;DHT22;36325;51.512;-0.382;2022-12-19T16:20:26;12.90;99.90
30037;DHT22;36325;51.512;-0.382;2022-12-19T16:22:54;13.00;99.90
30037;DHT22;36325;51.512;-0.382;2022-12-19T16:25:23;13.00;99.90
30037;DHT22;36325;51.512;-0.382;2022-12-19T16:27:54;13.00;99.90
30037;DHT22;36325;51.512;-0.382;2022-12-19T16:30:26;13.00;99.90
30037;DHT22;36325;51.512;-0.382;2022-12-19T16:32:53;13.00;99.90
30037;DHT22;36325;51.512;-0.382;2022-12-19T16:35:23;13.00;99.90
30037;DHT22;36325;51.512;-0.382;2022-12-19T16:38:13;13.00;99.90
30037;DHT22;36325;51.512;-0.382;2022-12-19T16:40:41;13.00;99.90
30037;DHT22;36325;51.512;-0.382;2022-12-19T16:43:35;13.10;99.90
30037;DHT22;36325;51.512;-0.382;2022-12-19T16:46:05;13.10;99.90
30037;DHT22;36325;51.512;-0.382;2022-12-19T16:48:33;13.10;99.90
30037;DHT22;36325;51.512;-0.382;2022-12-19T16:51:02;13.00;99.90
30037;DHT22;36325;51.512;-0.382;2022-12-19T16:53:29;13.10;99.90
30037;DHT22;36325;51.512;-0.382;2022-12-19T16:55:57;13.00;99.90
30037;DHT22;36325;51.512;-0.382;2022-12-19T16:58:26;13.00;99.90
30037;DHT22;36325;51.512;-0.382;2022-12-19T17:00:55;13.00;99.90
30037;DHT22;36325;51.512;-0.382;2022-12-19T17:03:38;13.00;99.90
30037;DHT22;36325;51.512;-0.382;2022-12-19T17:06:11;13.00;99.90
30037;DHT22;36325;51.512;-0.382;2022-12-19T17:08:40;13.00;99.90
30037;DHT22;36325;51.512;-0.382;2022-12-19T17:11:15;13.00;99.90
30037;DHT22;36325;51.512;-0.382;2022-12-19T17:13:44;13.00;99.90
30037;DHT22;36325;51.512;-0.382;2022-12-19T17:16:11;13.00;99.90
30037;DHT22;36325;51.512;-0.382;2022-12-19T17:18:40;13.00;99.90
30037;DHT22;36325;51.512;-0.382;2022-12-19T17:21:20;13.10;99.90
30037;DHT22;36325;51.512;-0.382;2022-12-19T17:23:49;13.10;99.90
30037;DHT22;36325;51.512;-0.382;2022-12-19T17:26:17;13.10;99.90
30037;DHT22;36325;51.512;-0.382;2022-12-19T17:28:44;13.10;99.90
30037;DHT22;36325;51.512;-0.382;2022-12-19T17:31:22;13.10;99.90
30037;DHT22;36325;51.512;-0.382;2022-12-19T17:33:50;13.10;99.90
30037;DHT22;36325;51.512;-0.382;2022-12-19T17:38:51;13.10;99.90
30037;DHT22;36325;51.512;-0.382;2022-12-19T17:43:46;13.20;99.90
30037;DHT22;36325;51.512;-0.382;2022-12-19T17:46:17;13.20;99.90
30037;DHT22;36325;51.512;-0.382;2022-12-19T17:48:49;14.20;99.90
30037;DHT22;36325;51.512;-0.382;2022-12-19T17:51:18;13.20;99.90
30037;DHT22;36325;51.512;-0.382;2022-12-19T17:56:18;13.20;99.90
30037;DHT22;36325;51.512;-0.382;2022-12-19T17:58:47;13.10;99.90
30037;DHT22;36325;51.512;-0.382;2022-12-19T18:01:18;13.10;99.90
30037;DHT22;36325;51.512;-0.382;2022-12-19T18:03:48;13.10;99.90
30037;DHT22;36325;51.512;-0.382;2022-12-19T18:06:16;13.10;99.90
30037;DHT22;36325;51.512;-0.382;2022-12-19T18:08:44;13.10;99.90
30037;DHT22;36325;51.512;-0.382;2022-12-19T18:14:27;13.00;99.90
30037;DHT22;36325;51.512;-0.382;2022-12-19T18:16:54;13.00;99.90
30037;DHT22;36325;51.512;-0.382;2022-12-19T18:19:23;13.00;99.90
30037;DHT22;36325;51.512;-0.382;2022-12-19T18:21:52;13.00;99.90
30037;DHT22;36325;51.512;-0.382;2022-12-19T18:24:19;13.00;99.90
30037;DHT22;36325;51.512;-0.382;2022-12-19T18:26:47;13.10;99.90
30037;DHT22;36325;51.512;-0.382;2022-12-19T18:29:14;13.10;99.90
30037;DHT22;36325;51.512;-0.382;2022-12-19T18:34:21;13.10;99.90
30037;DHT22;36325;51.512;-0.382;2022-12-19T18:36:51;13.10;99.90
30037;DHT22;36325;51.512;-0.382;2022-12-19T18:39:23;13.10;99.90
30037;DHT22;36325;51.512;-0.382;2022-12-19T18:41:51;13.20;99.90
30037;DHT22;36325;51.512;-0.382;2022-12-19T18:44:19;13.10;99.90
30037;DHT22;36325;51.512;-0.382;2022-12-19T18:46:49;13.10;99.90
30037;DHT22;36325;51.512;-0.382;2022-12-19T18:49:18;14.10;99.90